sensor_id;sensor_type;location;lat;lon;timestamp;pressure;altitude;pressure_sealevel;temperature;humidity
9935;BME280;5006;41.828;23.478;2024-02-26T00:00:39;89885.09;;;19.94;67.92
9935;BME280;5006;41.828;23.478;2024-02-26T00:01:46;89881.16;;;19.68;68.21
9935;BME280;5006;41.828;23.478;2024-02-26T00:02:53;89883.78;;;19.32;68.55
9935;BME280;5006;41.828;23.478;2024-02-26T00:03:59;89886.53;;;19.02;69.97
9935;BME280;5006;41.828;23.478;2024-02-26T00:05:07;89880.97;;;19.05;70.01
9935;BME280;5006;41.828;23.478;2024-02-26T00:06:14;89877.91;;;19.34;69.16
9935;BME280;5006;41.828;23.478;2024-02-26T00:07:22;89881.03;;;19.80;68.18
9935;BME280;5006;41.828;23.478;2024-02-26T00:08:29;89873.44;;;19.75;67.94
9935;BME280;5006;41.828;23.478;2024-02-26T00:09:37;89875.56;;;19.63;67.09
9935;BME280;5006;41.828;23.478;2024-02-26T00:10:42;89885.66;;;19.14;68.40
9935;BME280;5006;41.828;23.478;2024-02-26T00:11:49;89884.59;;;18.72;69.83
9935;BME280;5006;41.828;23.478;2024-02-26T00:12:55;89887.75;;;18.70;70.22
9935;BME280;5006;41.828;23.478;2024-02-26T00:14:02;89882.09;;;18.13;71.58
9935;BME280;5006;41.828;23.478;2024-02-26T00:15:08;89886.03;;;18.12;72.08
9935;BME280;5006;41.828;23.478;2024-02-26T00:16:14;89884.16;;;17.66;73.46
9935;BME280;5006;41.828;23.478;2024-02-26T00:17:20;89878.56;;;17.82;73.94
9935;BME280;5006;41.828;23.478;2024-02-26T00:18:26;89880.38;;;17.63;74.17
9935;BME280;5006;41.828;23.478;2024-02-26T00:19:32;89888.34;;;17.46;74.97
9935;BME280;5006;41.828;23.478;2024-02-26T00:20:39;89880.34;;;17.76;74.16
9935;BME280;5006;41.828;23.478;2024-02-26T00:21:45;89883.78;;;18.32;72.61
9935;BME280;5006;41.828;23.478;2024-02-26T00:22:51;89880.84;;;18.48;71.76
9935;BME280;5006;41.828;23.478;2024-02-26T00:23:58;89873.84;;;18.99;70.99
9935;BME280;5006;41.828;23.478;2024-02-26T00:25:04;89863.75;;;19.08;69.59
9935;BME280;5006;41.828;23.478;2024-02-26T00:26:10;89872.38;;;19.64;68.48
9935;BME280;5006;41.828;23.478;2024-02-26T00:27:15;89873.88;;;19.56;67.77
9935;BME280;5006;41.828;23.478;2024-02-26T00:28:22;89866.47;;;19.66;67.87
9935;BME280;5006;41.828;23.478;2024-02-26T00:29:27;89867.25;;;19.84;67.20
9935;BME280;5006;41.828;23.478;2024-02-26T00:30:33;89867.59;;;19.86;66.90
9935;BME280;5006;41.828;23.478;2024-02-26T00:31:38;89865.97;;;19.31;68.24
9935;BME280;5006;41.828;23.478;2024-02-26T00:32:45;89859.16;;;19.18;69.08
9935;BME280;5006;41.828;23.478;2024-02-26T00:33:50;89866.84;;;18.89;70.16
9935;BME280;5006;41.828;23.478;2024-02-26T00:34:56;89864.13;;;19.19;69.73
9935;BME280;5006;41.828;23.478;2024-02-26T00:36:01;89873.72;;;19.42;69.43
9935;BME280;5006;41.828;23.478;2024-02-26T00:37:08;89864.81;;;19.59;68.50
9935;BME280;5006;41.828;23.478;2024-02-26T00:38:15;89865.59;;;19.69;67.99
9935;BME280;5006;41.828;23.478;2024-02-26T00:39:22;89864.09;;;19.68;68.00
9935;BME280;5006;41.828;23.478;2024-02-26T00:40:27;89866.66;;;19.14;68.92
9935;BME280;5006;41.828;23.478;2024-02-26T00:41:33;89874.94;;;18.40;70.59
9935;BME280;5006;41.828;23.478;2024-02-26T00:42:39;89868.47;;;18.25;71.62
9935;BME280;5006;41.828;23.478;2024-02-26T00:43:50;89869.50;;;17.76;73.17
9935;BME280;5006;41.828;23.478;2024-02-26T00:44:55;89869.13;;;18.08;72.29
9935;BME280;5006;41.828;23.478;2024-02-26T00:46:00;89879.78;;;18.45;71.74
9935;BME280;5006;41.828;23.478;2024-02-26T00:47:07;89866.63;;;19.05;70.84
9935;BME280;5006;41.828;23.478;2024-02-26T00:48:13;89868.03;;;18.79;71.54
9935;BME280;5006;41.828;23.478;2024-02-26T00:49:20;89864.34;;;18.64;71.36
9935;BME280;5006;41.828;23.478;2024-02-26T00:50:25;89872.16;;;18.31;71.83
9935;BME280;5006;41.828;23.478;2024-02-26T00:51:32;89866.84;;;18.89;71.74
9935;BME280;5006;41.828;23.478;2024-02-26T00:52:37;89869.34;;;18.65;71.16
9935;BME280;5006;41.828;23.478;2024-02-26T00:53:44;89869.88;;;18.51;71.18
9935;BME280;5006;41.828;23.478;2024-02-26T00:54:50;89875.88;;;18.46;71.51
9935;BME280;5006;41.828;23.478;2024-02-26T00:55:57;89868.06;;;18.57;71.35
9935;BME280;5006;41.828;23.478;2024-02-26T00:57:04;89876.16;;;18.70;70.33
9935;BME280;5006;41.828;23.478;2024-02-26T00:58:10;89868.22;;;18.84;70.88
9935;BME280;5006;41.828;23.478;2024-02-26T00:59:15;89861.19;;;18.65;70.79
9935;BME280;5006;41.828;23.478;2024-02-26T01:00:22;89861.28;;;18.31;71.03
9935;BME280;5006;41.828;23.478;2024-02-26T01:01:28;89865.50;;;18.54;71.20
9935;BME280;5006;41.828;23.478;2024-02-26T01:02:33;89864.19;;;18.67;71.84
9935;BME280;5006;41.828;23.478;2024-02-26T01:03:38;89861.22;;;19.14;70.25
9935;BME280;5006;41.828;23.478;2024-02-26T01:04:45;89863.13;;;19.53;69.17
9935;BME280;5006;41.828;23.478;2024-02-26T01:05:50;89862.56;;;19.58;68.08
9935;BME280;5006;41.828;23.478;2024-02-26T01:06:57;89856.03;;;19.46;68.02
9935;BME280;5006;41.828;23.478;2024-02-26T01:08:03;89851.56;;;18.73;68.50
9935;BME280;5006;41.828;23.478;2024-02-26T01:09:11;89845.94;;;19.65;68.21
9935;BME280;5006;41.828;23.478;2024-02-26T01:10:17;89851.84;;;19.63;67.53
9935;BME280;5006;41.828;23.478;2024-02-26T01:11:23;89847.53;;;19.26;68.20
9935;BME280;5006;41.828;23.478;2024-02-26T01:12:30;89856.69;;;18.71;69.83
9935;BME280;5006;41.828;23.478;2024-02-26T01:13:36;89846.91;;;18.83;69.46
9935;BME280;5006;41.828;23.478;2024-02-26T01:14:42;89853.38;;;18.76;69.22
9935;BME280;5006;41.828;23.478;2024-02-26T01:15:47;89857.38;;;18.93;69.08
9935;BME280;5006;41.828;23.478;2024-02-26T01:16:54;89849.91;;;18.76;68.09
9935;BME280;5006;41.828;23.478;2024-02-26T01:18:00;89845.66;;;18.35;69.34
9935;BME280;5006;41.828;23.478;2024-02-26T01:19:06;89848.44;;;19.23;68.77
9935;BME280;5006;41.828;23.478;2024-02-26T01:20:11;89842.75;;;19.66;67.49
9935;BME280;5006;41.828;23.478;2024-02-26T01:21:18;89843.25;;;19.16;68.33
9935;BME280;5006;41.828;23.478;2024-02-26T01:22:24;89839.28;;;19.66;67.02
9935;BME280;5006;41.828;23.478;2024-02-26T01:23:31;89840.47;;;19.29;67.37
9935;BME280;5006;41.828;23.478;2024-02-26T01:24:38;89830.84;;;19.81;66.79
9935;BME280;5006;41.828;23.478;2024-02-26T01:25:44;89842.91;;;19.72;66.68
9935;BME280;5006;41.828;23.478;2024-02-26T01:26:49;89829.16;;;19.48;66.86
9935;BME280;5006;41.828;23.478;2024-02-26T01:27:55;89848.38;;;18.66;68.98
9935;BME280;5006;41.828;23.478;2024-02-26T01:29:01;89839.75;;;18.67;69.82
9935;BME280;5006;41.828;23.478;2024-02-26T01:30:09;89827.94;;;18.52;70.03
9935;BME280;5006;41.828;23.478;2024-02-26T01:31:14;89834.94;;;18.19;71.02
9935;BME280;5006;41.828;23.478;2024-02-26T01:32:20;89833.41;;;18.31;71.23
9935;BME280;5006;41.828;23.478;2024-02-26T01:33:25;89824.44;;;19.31;69.71
9935;BME280;5006;41.828;23.478;2024-02-26T01:34:31;89817.47;;;18.72;70.02
9935;BME280;5006;41.828;23.478;2024-02-26T01:35:36;89825.53;;;19.03;69.85
9935;BME280;5006;41.828;23.478;2024-02-26T01:36:42;89822.81;;;18.94;69.98
9935;BME280;5006;41.828;23.478;2024-02-26T01:37:47;89824.97;;;18.68;70.50
9935;BME280;5006;41.828;23.478;2024-02-26T01:38:53;89820.56;;;18.62;69.82
9935;BME280;5006;41.828;23.478;2024-02-26T01:40:00;89822.09;;;18.11;70.38
9935;BME280;5006;41.828;23.478;2024-02-26T01:41:09;89824.06;;;17.89;72.74
9935;BME280;5006;41.828;23.478;2024-02-26T01:42:16;89815.69;;;18.26;71.35
9935;BME280;5006;41.828;23.478;2024-02-26T01:43:22;89820.78;;;17.94;71.58
9935;BME280;5006;41.828;23.478;2024-02-26T01:44:29;89818.66;;;18.19;72.97
9935;BME280;5006;41.828;23.478;2024-02-26T01:45:35;89805.00;;;18.53;71.95
9935;BME280;5006;41.828;23.478;2024-02-26T01:46:42;89812.59;;;18.28;72.28
9935;BME280;5006;41.828;23.478;2024-02-26T01:47:49;89807.84;;;18.50;72.31
9935;BME280;5006;41.828;23.478;2024-02-26T01:48:56;89822.47;;;18.00;73.81
9935;BME280;5006;41.828;23.478;2024-02-26T01:50:02;89817.19;;;19.37;70.78
9935;BME280;5006;41.828;23.478;2024-02-26T01:51:10;89813.88;;;19.42;70.43
9935;BME280;5006;41.828;23.478;2024-02-26T01:52:16;89820.25;;;18.99;70.31
9935;BME280;5006;41.828;23.478;2024-02-26T01:53:24;89820.94;;;18.42;71.96
9935;BME280;5006;41.828;23.478;2024-02-26T01:54:30;89812.94;;;19.18;70.69
9935;BME280;5006;41.828;23.478;2024-02-26T01:55:38;89818.72;;;19.47;69.69
9935;BME280;5006;41.828;23.478;2024-02-26T01:56:46;89816.16;;;18.95;69.45
9935;BME280;5006;41.828;23.478;2024-02-26T01:57:52;89817.28;;;19.15;69.19
9935;BME280;5006;41.828;23.478;2024-02-26T01:58:58;89814.94;;;19.35;68.04
9935;BME280;5006;41.828;23.478;2024-02-26T02:00:07;89813.78;;;19.15;68.54
9935;BME280;5006;41.828;23.478;2024-02-26T02:01:15;89810.69;;;19.34;68.13
9935;BME280;5006;41.828;23.478;2024-02-26T02:02:22;89817.97;;;19.55;68.27
9935;BME280;5006;41.828;23.478;2024-02-26T02:03:27;89815.09;;;19.76;67.80
9935;BME280;5006;41.828;23.478;2024-02-26T02:04:34;89810.28;;;20.07;67.55
9935;BME280;5006;41.828;23.478;2024-02-26T02:05:40;89812.38;;;20.03;66.74
9935;BME280;5006;41.828;23.478;2024-02-26T02:06:48;89810.53;;;20.27;66.50
9935;BME280;5006;41.828;23.478;2024-02-26T02:07:54;89813.91;;;19.69;67.00
9935;BME280;5006;41.828;23.478;2024-02-26T02:09:00;89815.19;;;19.19;67.78
9935;BME280;5006;41.828;23.478;2024-02-26T02:10:11;89819.06;;;18.61;68.52
9935;BME280;5006;41.828;23.478;2024-02-26T02:11:19;89811.50;;;18.56;69.79
9935;BME280;5006;41.828;23.478;2024-02-26T02:12:25;89811.19;;;18.54;70.07
9935;BME280;5006;41.828;23.478;2024-02-26T02:13:32;89808.88;;;18.83;69.70
9935;BME280;5006;41.828;23.478;2024-02-26T02:14:37;89813.56;;;18.43;69.56
9935;BME280;5006;41.828;23.478;2024-02-26T02:15:44;89815.78;;;18.75;70.82
9935;BME280;5006;41.828;23.478;2024-02-26T02:16:50;89811.22;;;18.32;72.12
9935;BME280;5006;41.828;23.478;2024-02-26T02:17:57;89812.91;;;18.39;72.79
9935;BME280;5006;41.828;23.478;2024-02-26T02:19:03;89816.03;;;18.07;73.03
9935;BME280;5006;41.828;23.478;2024-02-26T02:20:15;89807.56;;;17.62;74.90
9935;BME280;5006;41.828;23.478;2024-02-26T02:21:22;89808.44;;;17.71;74.92
9935;BME280;5006;41.828;23.478;2024-02-26T02:22:29;89818.19;;;17.90;74.96
9935;BME280;5006;41.828;23.478;2024-02-26T02:23:37;89815.34;;;18.15;74.70
9935;BME280;5006;41.828;23.478;2024-02-26T02:24:45;89816.09;;;17.73;75.75
9935;BME280;5006;41.828;23.478;2024-02-26T02:25:50;89807.84;;;17.55;76.44
9935;BME280;5006;41.828;23.478;2024-02-26T02:26:57;89810.75;;;17.60;76.06
9935;BME280;5006;41.828;23.478;2024-02-26T02:28:02;89826.13;;;17.42;76.62
9935;BME280;5006;41.828;23.478;2024-02-26T02:29:09;89814.72;;;17.90;76.19
9935;BME280;5006;41.828;23.478;2024-02-26T02:30:15;89813.97;;;18.72;73.91
9935;BME280;5006;41.828;23.478;2024-02-26T02:31:21;89818.22;;;19.30;72.08
9935;BME280;5006;41.828;23.478;2024-02-26T02:32:26;89813.16;;;19.02;72.04
9935;BME280;5006;41.828;23.478;2024-02-26T02:33:34;89817.25;;;18.58;73.16
9935;BME280;5006;41.828;23.478;2024-02-26T02:34:40;89817.63;;;18.87;73.49
9935;BME280;5006;41.828;23.478;2024-02-26T02:35:47;89820.22;;;19.48;71.40
9935;BME280;5006;41.828;23.478;2024-02-26T02:36:54;89821.88;;;19.27;71.47
9935;BME280;5006;41.828;23.478;2024-02-26T02:38:00;89818.41;;;20.34;68.86
9935;BME280;5006;41.828;23.478;2024-02-26T02:39:05;89821.72;;;20.29;67.47
9935;BME280;5006;41.828;23.478;2024-02-26T02:40:10;89825.88;;;19.14;67.29
9935;BME280;5006;41.828;23.478;2024-02-26T02:41:17;89819.41;;;18.41;70.64
9935;BME280;5006;41.828;23.478;2024-02-26T02:42:23;89821.66;;;18.12;72.74
9935;BME280;5006;41.828;23.478;2024-02-26T02:43:30;89824.69;;;17.93;73.78
9935;BME280;5006;41.828;23.478;2024-02-26T02:44:35;89824.28;;;18.25;74.36
9935;BME280;5006;41.828;23.478;2024-02-26T02:45:41;89816.38;;;18.70;73.24
9935;BME280;5006;41.828;23.478;2024-02-26T02:46:46;89820.91;;;18.73;72.94
9935;BME280;5006;41.828;23.478;2024-02-26T02:47:52;89816.00;;;19.65;70.33
9935;BME280;5006;41.828;23.478;2024-02-26T02:48:57;89824.19;;;20.09;69.30
9935;BME280;5006;41.828;23.478;2024-02-26T02:50:03;89829.44;;;19.59;69.27
9935;BME280;5006;41.828;23.478;2024-02-26T02:51:09;89824.63;;;19.54;69.15
9935;BME280;5006;41.828;23.478;2024-02-26T02:52:18;89821.63;;;19.13;70.55
9935;BME280;5006;41.828;23.478;2024-02-26T02:53:22;89827.78;;;18.56;72.08
9935;BME280;5006;41.828;23.478;2024-02-26T02:54:29;89829.66;;;18.37;72.94
9935;BME280;5006;41.828;23.478;2024-02-26T02:55:34;89839.06;;;18.24;73.48
9935;BME280;5006;41.828;23.478;2024-02-26T02:56:40;89836.88;;;17.67;75.13
9935;BME280;5006;41.828;23.478;2024-02-26T02:57:45;89831.88;;;17.87;75.17
9935;BME280;5006;41.828;23.478;2024-02-26T02:58:52;89826.63;;;17.71;75.27
9935;BME280;5006;41.828;23.478;2024-02-26T02:59:58;89826.31;;;18.12;74.79
9935;BME280;5006;41.828;23.478;2024-02-26T03:01:05;89826.72;;;18.01;74.57
9935;BME280;5006;41.828;23.478;2024-02-26T03:02:10;89822.50;;;17.79;75.44
9935;BME280;5006;41.828;23.478;2024-02-26T03:03:16;89825.16;;;18.74;73.65
9935;BME280;5006;41.828;23.478;2024-02-26T03:04:21;89818.41;;;19.45;71.62
9935;BME280;5006;41.828;23.478;2024-02-26T03:05:28;89829.13;;;19.39;70.87
9935;BME280;5006;41.828;23.478;2024-02-26T03:06:33;89822.50;;;19.67;70.65
9935;BME280;5006;41.828;23.478;2024-02-26T03:07:40;89827.50;;;19.42;70.99
9935;BME280;5006;41.828;23.478;2024-02-26T03:08:46;89826.88;;;19.29;71.20
9935;BME280;5006;41.828;23.478;2024-02-26T03:09:52;89814.69;;;19.12;71.33
9935;BME280;5006;41.828;23.478;2024-02-26T03:10:58;89816.00;;;19.47;70.86
9935;BME280;5006;41.828;23.478;2024-02-26T03:12:05;89816.94;;;19.79;70.20
9935;BME280;5006;41.828;23.478;2024-02-26T03:13:11;89822.06;;;19.86;69.63
9935;BME280;5006;41.828;23.478;2024-02-26T03:14:18;89821.47;;;19.82;69.50
9935;BME280;5006;41.828;23.478;2024-02-26T03:15:22;89822.19;;;19.83;68.97
9935;BME280;5006;41.828;23.478;2024-02-26T03:16:30;89827.78;;;19.53;69.27
9935;BME280;5006;41.828;23.478;2024-02-26T03:17:35;89822.22;;;19.74;69.74
9935;BME280;5006;41.828;23.478;2024-02-26T03:18:41;89818.09;;;19.52;68.85
9935;BME280;5006;41.828;23.478;2024-02-26T03:19:46;89820.56;;;19.68;69.33
9935;BME280;5006;41.828;23.478;2024-02-26T03:20:58;89816.28;;;19.49;69.17
9935;BME280;5006;41.828;23.478;2024-02-26T03:22:03;89825.53;;;19.03;69.24
9935;BME280;5006;41.828;23.478;2024-02-26T03:23:11;89823.59;;;19.03;69.52
9935;BME280;5006;41.828;23.478;2024-02-26T03:24:20;89826.91;;;19.07;69.18
9935;BME280;5006;41.828;23.478;2024-02-26T03:25:27;89821.31;;;19.02;68.89
9935;BME280;5006;41.828;23.478;2024-02-26T03:26:32;89821.09;;;19.18;68.03
9935;BME280;5006;41.828;23.478;2024-02-26T03:27:39;89810.16;;;19.09;67.36
9935;BME280;5006;41.828;23.478;2024-02-26T03:28:45;89821.88;;;19.27;67.68
9935;BME280;5006;41.828;23.478;2024-02-26T03:29:52;89816.03;;;20.09;66.24
9935;BME280;5006;41.828;23.478;2024-02-26T03:30:58;89821.00;;;20.11;66.41
9935;BME280;5006;41.828;23.478;2024-02-26T03:32:05;89818.63;;;20.54;65.84
9935;BME280;5006;41.828;23.478;2024-02-26T03:33:11;89820.97;;;20.38;65.03
9935;BME280;5006;41.828;23.478;2024-02-26T03:34:18;89821.31;;;19.86;65.76
9935;BME280;5006;41.828;23.478;2024-02-26T03:35:24;89826.25;;;19.34;66.82
9935;BME280;5006;41.828;23.478;2024-02-26T03:36:31;89826.44;;;20.20;65.99
9935;BME280;5006;41.828;23.478;2024-02-26T03:37:36;89823.28;;;20.12;66.06
9935;BME280;5006;41.828;23.478;2024-02-26T03:38:43;89826.00;;;20.03;66.17
9935;BME280;5006;41.828;23.478;2024-02-26T03:39:51;89826.44;;;19.48;67.73
9935;BME280;5006;41.828;23.478;2024-02-26T03:40:56;89818.41;;;20.25;66.18
9935;BME280;5006;41.828;23.478;2024-02-26T03:42:02;89818.59;;;20.04;66.52
9935;BME280;5006;41.828;23.478;2024-02-26T03:43:08;89821.63;;;20.15;65.78
9935;BME280;5006;41.828;23.478;2024-02-26T03:44:14;89826.91;;;19.56;66.70
9935;BME280;5006;41.828;23.478;2024-02-26T03:45:20;89815.25;;;20.18;66.24
9935;BME280;5006;41.828;23.478;2024-02-26T03:46:26;89820.41;;;20.66;65.12
9935;BME280;5006;41.828;23.478;2024-02-26T03:47:31;89820.13;;;20.64;64.87
9935;BME280;5006;41.828;23.478;2024-02-26T03:48:37;89819.56;;;20.42;64.93
9935;BME280;5006;41.828;23.478;2024-02-26T03:49:42;89819.63;;;20.24;64.95
9935;BME280;5006;41.828;23.478;2024-02-26T03:50:47;89822.50;;;19.94;65.15
9935;BME280;5006;41.828;23.478;2024-02-26T03:51:53;89823.84;;;19.36;66.14
9935;BME280;5006;41.828;23.478;2024-02-26T03:52:58;89821.22;;;18.75;68.04
9935;BME280;5006;41.828;23.478;2024-02-26T03:54:06;89816.66;;;18.63;69.21
9935;BME280;5006;41.828;23.478;2024-02-26T03:55:12;89816.59;;;18.93;69.81
9935;BME280;5006;41.828;23.478;2024-02-26T03:56:18;89818.28;;;19.00;69.20
9935;BME280;5006;41.828;23.478;2024-02-26T03:57:24;89821.13;;;19.45;69.04
9935;BME280;5006;41.828;23.478;2024-02-26T03:58:30;89815.81;;;19.23;68.94
9935;BME280;5006;41.828;23.478;2024-02-26T03:59:35;89825.22;;;19.58;68.00
9935;BME280;5006;41.828;23.478;2024-02-26T04:00:42;89822.22;;;18.99;69.45
9935;BME280;5006;41.828;23.478;2024-02-26T04:01:48;89816.31;;;18.91;70.20
9935;BME280;5006;41.828;23.478;2024-02-26T04:02:55;89811.13;;;18.75;70.60
9935;BME280;5006;41.828;23.478;2024-02-26T04:04:01;89809.34;;;18.51;70.59
9935;BME280;5006;41.828;23.478;2024-02-26T04:05:09;89813.69;;;17.75;72.61
9935;BME280;5006;41.828;23.478;2024-02-26T04:06:15;89810.88;;;17.57;74.11
9935;BME280;5006;41.828;23.478;2024-02-26T04:07:23;89809.34;;;17.77;73.43
9935;BME280;5006;41.828;23.478;2024-02-26T04:08:28;89812.25;;;17.83;73.66
9935;BME280;5006;41.828;23.478;2024-02-26T04:09:36;89821.03;;;17.87;73.84
9935;BME280;5006;41.828;23.478;2024-02-26T04:10:41;89820.31;;;17.74;74.27
9935;BME280;5006;41.828;23.478;2024-02-26T04:11:47;89815.56;;;17.78;73.37
9935;BME280;5006;41.828;23.478;2024-02-26T04:12:52;89825.91;;;17.70;74.02
9935;BME280;5006;41.828;23.478;2024-02-26T04:13:58;89812.41;;;18.53;72.52
9935;BME280;5006;41.828;23.478;2024-02-26T04:15:04;89821.94;;;18.66;71.08
9935;BME280;5006;41.828;23.478;2024-02-26T04:16:11;89809.78;;;18.80;71.42
9935;BME280;5006;41.828;23.478;2024-02-26T04:17:17;89808.66;;;18.68;71.16
9935;BME280;5006;41.828;23.478;2024-02-26T04:18:23;89811.03;;;18.97;70.66
9935;BME280;5006;41.828;23.478;2024-02-26T04:19:29;89821.31;;;19.02;71.10
9935;BME280;5006;41.828;23.478;2024-02-26T04:20:36;89812.50;;;18.89;69.78
9935;BME280;5006;41.828;23.478;2024-02-26T04:21:41;89814.03;;;19.38;69.53
9935;BME280;5006;41.828;23.478;2024-02-26T04:22:48;89813.63;;;19.09;69.73
9935;BME280;5006;41.828;23.478;2024-02-26T04:23:53;89816.59;;;18.93;70.49
9935;BME280;5006;41.828;23.478;2024-02-26T04:25:01;89814.41;;;18.31;71.70
9935;BME280;5006;41.828;23.478;2024-02-26T04:26:08;89815.63;;;18.39;71.98
9935;BME280;5006;41.828;23.478;2024-02-26T04:27:15;89818.22;;;18.21;71.63
9935;BME280;5006;41.828;23.478;2024-02-26T04:28:21;89820.34;;;18.26;71.83
9935;BME280;5006;41.828;23.478;2024-02-26T04:29:30;89811.16;;;18.93;71.00
9935;BME280;5006;41.828;23.478;2024-02-26T04:30:35;89823.66;;;18.21;71.74
9935;BME280;5006;41.828;23.478;2024-02-26T04:31:41;89822.50;;;18.52;71.21
9935;BME280;5006;41.828;23.478;2024-02-26T04:32:47;89815.13;;;18.62;71.10
9935;BME280;5006;41.828;23.478;2024-02-26T04:33:56;89812.66;;;18.46;70.81
9935;BME280;5006;41.828;23.478;2024-02-26T04:35:03;89810.34;;;18.35;70.92
9935;BME280;5006;41.828;23.478;2024-02-26T04:36:13;89812.66;;;18.46;71.70
9935;BME280;5006;41.828;23.478;2024-02-26T04:37:20;89815.94;;;17.89;72.40
9935;BME280;5006;41.828;23.478;2024-02-26T04:38:26;89812.19;;;17.74;72.77
9935;BME280;5006;41.828;23.478;2024-02-26T04:39:32;89815.16;;;17.88;72.69
9935;BME280;5006;41.828;23.478;2024-02-26T04:40:38;89811.34;;;18.99;71.02
9935;BME280;5006;41.828;23.478;2024-02-26T04:41:45;89809.03;;;18.79;70.47
9935;BME280;5006;41.828;23.478;2024-02-26T04:42:50;89809.13;;;19.15;69.69
9935;BME280;5006;41.828;23.478;2024-02-26T04:43:56;89810.13;;;18.91;69.68
9935;BME280;5006;41.828;23.478;2024-02-26T04:45:02;89809.03;;;18.79;70.14
9935;BME280;5006;41.828;23.478;2024-02-26T04:46:09;89810.72;;;18.55;70.87
9935;BME280;5006;41.828;23.478;2024-02-26T04:47:14;89813.09;;;18.23;71.10
9935;BME280;5006;41.828;23.478;2024-02-26T04:48:21;89815.84;;;18.53;71.16
9935;BME280;5006;41.828;23.478;2024-02-26T04:49:27;89809.31;;;18.72;71.07
9935;BME280;5006;41.828;23.478;2024-02-26T04:50:34;89807.63;;;18.66;71.53
9935;BME280;5006;41.828;23.478;2024-02-26T04:51:40;89812.03;;;18.72;70.52
9935;BME280;5006;41.828;23.478;2024-02-26T04:52:47;89811.91;;;18.85;69.98
9935;BME280;5006;41.828;23.478;2024-02-26T04:53:52;89810.19;;;18.08;71.65
9935;BME280;5006;41.828;23.478;2024-02-26T04:54:59;89801.09;;;19.12;70.13
9935;BME280;5006;41.828;23.478;2024-02-26T04:56:06;89805.56;;;18.88;70.21
9935;BME280;5006;41.828;23.478;2024-02-26T04:57:13;89804.41;;;18.98;69.44
9935;BME280;5006;41.828;23.478;2024-02-26T04:58:19;89806.63;;;18.42;70.14
9935;BME280;5006;41.828;23.478;2024-02-26T04:59:26;89805.34;;;18.34;69.25
9935;BME280;5006;41.828;23.478;2024-02-26T05:00:31;89806.16;;;18.22;70.38
9935;BME280;5006;41.828;23.478;2024-02-26T05:01:36;89804.06;;;18.87;68.79
9935;BME280;5006;41.828;23.478;2024-02-26T05:02:42;89810.66;;;18.68;69.03
9935;BME280;5006;41.828;23.478;2024-02-26T05:03:48;89808.88;;;18.83;68.97
9935;BME280;5006;41.828;23.478;2024-02-26T05:04:54;89816.44;;;18.88;68.53
9935;BME280;5006;41.828;23.478;2024-02-26T05:06:00;89805.31;;;18.95;68.72
9935;BME280;5006;41.828;23.478;2024-02-26T05:07:06;89807.91;;;19.16;68.41
9935;BME280;5006;41.828;23.478;2024-02-26T05:08:12;89811.47;;;18.86;68.22
9935;BME280;5006;41.828;23.478;2024-02-26T05:09:17;89802.06;;;18.78;68.21
9935;BME280;5006;41.828;23.478;2024-02-26T05:10:23;89808.81;;;18.13;68.86
9935;BME280;5006;41.828;23.478;2024-02-26T05:11:30;89810.97;;;18.18;69.40
9935;BME280;5006;41.828;23.478;2024-02-26T05:12:37;89801.97;;;19.00;68.37
9935;BME280;5006;41.828;23.478;2024-02-26T05:13:43;89810.00;;;18.55;68.04
9935;BME280;5006;41.828;23.478;2024-02-26T05:14:50;89814.44;;;19.28;66.97
9935;BME280;5006;41.828;23.478;2024-02-26T05:15:55;89807.09;;;18.98;67.79
9935;BME280;5006;41.828;23.478;2024-02-26T05:17:01;89815.69;;;19.45;66.73
9935;BME280;5006;41.828;23.478;2024-02-26T05:18:06;89812.25;;;18.96;67.00
9935;BME280;5006;41.828;23.478;2024-02-26T05:19:13;89810.63;;;19.16;66.79
9935;BME280;5006;41.828;23.478;2024-02-26T05:20:19;89808.28;;;18.88;67.09
9935;BME280;5006;41.828;23.478;2024-02-26T05:21:25;89811.06;;;19.06;66.85
9935;BME280;5006;41.828;23.478;2024-02-26T05:22:30;89812.88;;;19.09;66.50
9935;BME280;5006;41.828;23.478;2024-02-26T05:23:37;89817.38;;;19.03;66.66
9935;BME280;5006;41.828;23.478;2024-02-26T05:24:43;89816.09;;;18.77;67.61
9935;BME280;5006;41.828;23.478;2024-02-26T05:25:50;89816.03;;;18.59;67.33
9935;BME280;5006;41.828;23.478;2024-02-26T05:26:59;89815.94;;;18.71;67.11
9935;BME280;5006;41.828;23.478;2024-02-26T05:28:05;89815.34;;;18.76;66.48
9935;BME280;5006;41.828;23.478;2024-02-26T05:29:12;89822.84;;;19.12;66.69
9935;BME280;5006;41.828;23.478;2024-02-26T05:30:17;89823.88;;;18.57;66.99
9935;BME280;5006;41.828;23.478;2024-02-26T05:31:23;89821.41;;;18.80;67.09
9935;BME280;5006;41.828;23.478;2024-02-26T05:32:28;89826.56;;;18.87;66.60
9935;BME280;5006;41.828;23.478;2024-02-26T05:33:35;89821.88;;;19.36;65.52
9935;BME280;5006;41.828;23.478;2024-02-26T05:34:40;89815.25;;;19.73;64.44
9935;BME280;5006;41.828;23.478;2024-02-26T05:35:47;89825.94;;;19.32;64.82
9935;BME280;5006;41.828;23.478;2024-02-26T05:36:52;89828.41;;;19.57;64.20
9935;BME280;5006;41.828;23.478;2024-02-26T05:37:58;89821.91;;;19.81;64.06
9935;BME280;5006;41.828;23.478;2024-02-26T05:39:03;89829.13;;;19.30;64.99
9935;BME280;5006;41.828;23.478;2024-02-26T05:40:10;89826.72;;;19.41;64.98
9935;BME280;5006;41.828;23.478;2024-02-26T05:41:16;89829.00;;;19.52;64.32
9935;BME280;5006;41.828;23.478;2024-02-26T05:42:29;89825.38;;;19.90;63.75
9935;BME280;5006;41.828;23.478;2024-02-26T05:43:35;89828.72;;;19.68;63.10
9935;BME280;5006;41.828;23.478;2024-02-26T05:44:42;89838.97;;;19.64;63.31
9935;BME280;5006;41.828;23.478;2024-02-26T05:45:47;89837.31;;;20.02;62.91
9935;BME280;5006;41.828;23.478;2024-02-26T05:46:53;89837.31;;;19.84;62.93
9935;BME280;5006;41.828;23.478;2024-02-26T05:47:58;89838.06;;;19.75;62.68
9935;BME280;5006;41.828;23.478;2024-02-26T05:49:04;89846.88;;;18.74;64.98
9935;BME280;5006;41.828;23.478;2024-02-26T05:50:10;89845.28;;;18.85;65.73
9935;BME280;5006;41.828;23.478;2024-02-26T05:51:17;89845.72;;;18.53;65.05
9935;BME280;5006;41.828;23.478;2024-02-26T05:52:22;89849.94;;;18.85;64.92
9935;BME280;5006;41.828;23.478;2024-02-26T05:53:28;89847.06;;;18.27;65.35
9935;BME280;5006;41.828;23.478;2024-02-26T05:54:33;89851.16;;;18.84;64.29
9935;BME280;5006;41.828;23.478;2024-02-26T05:55:39;89850.25;;;18.56;64.64